Terminal Aerodrome Forecast
Issued by NWS Lake Charles, LA

Home | Current Version | Previous Version | Text Only | Print | Product List | Glossary On
Versions: 1 2 3 4 5 6 7 8 9 10 11 12 13 14 15 16 17 18
670
FTUS44 KLCH 261239 AAA
TAFLFT
TAF AMD
KLFT 261239Z 2613/2712 00000KT P6SM FEW016
      TEMPO 2613/2614 4SM BR
     FM261400 16010KT P6SM VCSH SCT025 BKN050
     FM270100 16005KT P6SM BKN025=

USA.gov is the U.S. government's official web portal to all federal, state and local government web resources and services.